Time;durP1;ratioP1;P1;durP2;ratioP2;P2;SDS_P1;SDS_P2;PMS_P1;PMS_P2;Temp;Humidity;BMP_temperature;BMP_pressure;BME280_temperature;BME280_humidity;BME280_pressure;Samples;Min_cycle;Max_cycle;Signal;HPM_P1;HPM_P2
2023/09/03 00:00:12;;;;;;;3.42;3.13;;;;;;;-145.68;100.00;74487.31;10492707;28;20190;-67
2023/09/03 00:05:13;;;;;;;3.40;3.10;;;;;;;-145.68;100.00;74471.31;10508863;28;20696;-67
2023/09/03 00:10:13;;;;;;;2.97;2.67;;;;;;;-145.68;100.00;74481.31;10531604;28;20222;-67
2023/09/03 00:15:13;;;;;;;5.75;3.05;;;;;;;-145.68;100.00;74463.31;10531789;28;20206;-66
2023/09/03 00:20:14;;;;;;;5.72;2.83;;;;;;;-145.68;100.00;74459.34;10535524;28;20998;-67
2023/09/03 00:25:14;;;;;;;4.88;2.78;;;;;;;-145.68;100.00;74463.31;10539362;28;20626;-67
2023/09/03 00:30:15;;;;;;;4.22;2.78;;;;;;;-145.68;100.00;74465.31;10539522;28;20627;-66
2023/09/03 00:35:15;;;;;;;3.08;2.78;;;;;;;-145.68;100.00;74473.31;10520650;28;20255;-67
2023/09/03 00:40:15;;;;;;;4.15;2.45;;;;;;;-145.68;100.00;74485.31;10539191;28;20183;-67
2023/09/03 00:45:16;;;;;;;2.63;2.42;;;;;;;-145.68;100.00;74491.31;10520507;28;20566;-67
2023/09/03 00:50:16;;;;;;;4.95;2.90;;;;;;;-145.68;100.00;74501.31;10538680;28;20246;-66
2023/09/03 00:55:17;;;;;;;3.03;2.72;;;;;;;-145.68;100.00;74491.31;10538402;28;20214;-66
2023/09/03 01:00:18;;;;;;;2.80;2.60;;;;;;;-145.68;100.00;74505.31;10537892;28;20190;-66
2023/09/03 01:05:19;;;;;;;3.55;2.85;;;;;;;-145.68;100.00;74495.31;10519763;28;20235;-66
2023/09/03 01:10:21;;;;;;;3.97;2.50;;;;;;;-145.68;100.00;74501.31;10495661;28;20222;-66
2023/09/03 01:15:27;;;;;;;3.33;2.63;;;;;;;-145.68;100.00;74501.31;10498477;28;20203;-66
2023/09/03 01:20:38;;;;;;;5.00;2.70;;;;;;;-145.68;100.00;74503.31;10463833;28;20191;-66
2023/09/03 01:25:45;;;;;;;3.25;2.60;;;;;;;-145.68;100.00;74503.31;10479996;28;20214;-66
2023/09/03 01:30:46;;;;;;;4.53;2.60;;;;;;;-145.68;100.00;74499.31;10510678;28;20238;-66
2023/09/03 01:35:48;;;;;;;2.92;2.72;;;;;;;-145.68;100.00;74499.31;10518699;28;20236;-66
2023/09/03 01:40:55;;;;;;;3.83;2.40;;;;;;;-145.68;100.00;74499.31;10518533;28;20171;-66
2023/09/03 01:46:12;;;;;;;3.55;2.50;;;;;;;-145.68;100.00;74495.31;10536195;28;20210;-66
2023/09/03 01:51:21;;;;;;;2.53;2.33;;;;;;;-145.68;100.00;74499.31;10517659;28;20684;-66
2023/09/03 01:56:22;;;;;;;4.38;2.58;;;;;;;-145.68;100.00;74495.31;10517324;28;20212;-66
2023/09/03 02:01:30;;;;;;;6.45;2.90;;;;;;;-145.68;100.00;74503.31;10500959;28;20193;-66
2023/09/03 02:06:30;;;;;;;3.63;2.67;;;;;;;-145.68;100.00;74509.31;10469746;22;20672;-70
2023/09/03 02:11:31;;;;;;;2.63;2.42;;;;;;;-145.68;100.00;74497.31;10370544;28;20263;-69
2023/09/03 02:16:31;;;;;;;2.65;2.08;;;;;;;-145.68;100.00;74491.31;10354331;28;20216;-69
2023/09/03 02:21:32;;;;;;;3.95;2.42;;;;;;;-145.68;100.00;74489.31;10370912;28;20216;-69
2023/09/03 02:26:32;;;;;;;3.42;2.70;;;;;;;-145.68;100.00;74481.31;10353224;28;20320;-69
2023/09/03 02:31:32;;;;;;;5.53;2.45;;;;;;;-145.68;100.00;74477.31;10370594;28;20217;-69
2023/09/03 02:36:34;;;;;;;2.65;2.45;;;;;;;-145.68;100.00;74473.31;10352886;28;20205;-70
2023/09/03 02:41:35;;;;;;;2.60;2.40;;;;;;;-145.68;100.00;74479.31;10369823;28;20178;-70
2023/09/03 02:46:35;;;;;;;2.60;2.40;;;;;;;-145.68;100.00;74479.31;10352213;28;20217;-70
2023/09/03 02:51:39;;;;;;;2.72;2.45;;;;;;;-145.68;100.00;74481.31;10370085;28;20260;-70
2023/09/03 02:56:39;;;;;;;2.85;2.50;;;;;;;-145.68;100.00;74483.31;10369471;28;20229;-70
2023/09/03 03:01:39;;;;;;;3.10;2.40;;;;;;;-145.68;100.00;74475.31;10369415;28;20189;-69
2023/09/03 03:06:40;;;;;;;2.70;2.50;;;;;;;-145.68;100.00;74475.31;10351545;28;20229;-70
2023/09/03 03:11:40;;;;;;;5.85;2.65;;;;;;;-145.68;100.00;74483.31;10369304;28;20750;-70
2023/09/03 03:16:41;;;;;;;3.10;2.50;;;;;;;-145.68;100.00;74483.31;10351393;28;20217;-70
2023/09/03 03:21:46;;;;;;;5.13;2.50;;;;;;;-145.68;100.00;74467.31;10351118;28;20738;-70
2023/09/03 03:26:47;;;;;;;4.53;2.50;;;;;;;-145.68;100.00;74451.34;10351200;28;20211;-70
2023/09/03 03:31:53;;;;;;;3.05;2.30;;;;;;;-145.68;100.00;74451.34;10351493;28;20730;-70
2023/09/03 03:36:54;;;;;;;4.93;2.53;;;;;;;-145.68;100.00;74451.34;10350952;28;20212;-69
2023/09/03 03:41:54;;;;;;;2.10;1.90;;;;;;;-145.68;100.00;74447.34;10350465;28;20207;-70
2023/09/03 03:46:55;;;;;;;2.47;2.28;;;;;;;-145.68;100.00;74461.34;10350566;28;20319;-70
2023/09/03 03:51:56;;;;;;;2.80;2.60;;;;;;;-145.68;100.00;74463.31;10350888;28;20209;-69
2023/09/03 03:56:56;;;;;;;2.50;2.30;;;;;;;-145.68;100.00;74457.34;10375181;28;20205;-70
2023/09/03 04:01:57;;;;;;;4.10;2.25;;;;;;;-145.68;100.00;74443.34;10354750;28;20181;-70
2023/09/03 04:06:57;;;;;;;4.32;2.35;;;;;;;-145.68;100.00;74421.34;10358232;28;20595;-69
2023/09/03 04:11:58;;;;;;;3.33;2.30;;;;;;;-145.68;100.00;74415.34;10375870;28;20564;-69
2023/09/03 04:16:58;;;;;;;3.13;2.50;;;;;;;-145.68;100.00;74409.34;10375806;28;20213;-70
2023/09/03 04:21:59;;;;;;;3.88;2.38;;;;;;;-145.68;100.00;74415.34;10357888;28;20557;-70
2023/09/03 04:27:00;;;;;;;4.47;2.28;;;;;;;-145.68;100.00;74427.34;10357728;28;20256;-70
2023/09/03 04:32:01;;;;;;;2.22;2.13;;;;;;;-145.68;100.00;74425.34;10357570;28;20254;-69
2023/09/03 04:37:02;;;;;;;3.17;2.10;;;;;;;-145.68;100.00;74421.34;10375019;28;20667;-70
2023/09/03 04:42:04;;;;;;;4.60;2.42;;;;;;;-145.68;100.00;74421.34;10355848;28;20181;-70
2023/09/03 04:47:05;;;;;;;3.08;2.50;;;;;;;-145.68;100.00;74421.34;10356898;28;20217;-70
2023/09/03 04:52:06;;;;;;;3.25;2.13;;;;;;;-145.68;100.00;74419.34;10373352;28;20275;-70
2023/09/03 04:57:07;;;;;;;3.75;2.30;;;;;;;-145.68;100.00;74419.34;10356105;28;20623;-70
2023/09/03 05:02:08;;;;;;;3.42;2.60;;;;;;;-145.68;100.00;74419.34;10356544;28;20182;-70
2023/09/03 05:07:09;;;;;;;2.85;2.63;;;;;;;-145.68;100.00;74417.34;10373513;28;20233;-70
2023/09/03 05:12:09;;;;;;;4.18;2.50;;;;;;;-145.68;100.00;74417.34;10373333;28;20220;-70
2023/09/03 05:17:10;;;;;;;2.55;2.35;;;;;;;-145.68;100.00;74409.34;10373299;28;20597;-70
2023/09/03 05:22:11;;;;;;;3.65;2.53;;;;;;;-145.68;100.00;74385.34;10373050;28;20570;-70
2023/09/03 05:27:11;;;;;;;2.65;1.90;;;;;;;-145.68;100.00;74383.34;10355281;28;20209;-70
2023/09/03 05:32:12;;;;;;;1.92;1.83;;;;;;;-145.68;100.00;74367.38;10372820;28;20219;-70
2023/09/03 05:37:13;;;;;;;2.30;2.10;;;;;;;-145.68;100.00;74351.38;10354895;28;20213;-70
2023/09/03 05:42:13;;;;;;;2.67;2.13;;;;;;;-145.68;100.00;74339.38;10354932;28;20272;-70
2023/09/03 05:47:18;;;;;;;2.22;2.03;;;;;;;-145.68;100.00;74329.38;10372131;28;20209;-69
2023/09/03 05:52:18;;;;;;;3.28;1.92;;;;;;;-145.68;100.00;74323.38;10354418;28;20225;-70
2023/09/03 05:57:20;;;;;;;2.30;2.10;;;;;;;-145.68;100.00;74319.38;10353906;28;20205;-70
2023/09/03 06:02:21;;;;;;;2.20;2.00;;;;;;;-145.68;100.00;74305.38;10371686;28;20200;-70
2023/09/03 06:07:21;;;;;;;2.33;2.08;;;;;;;-145.68;100.00;74271.41;10353569;28;20225;-70
2023/09/03 06:12:21;;;;;;;2.38;2.17;;;;;;;-145.68;100.00;74235.41;10371014;28;20214;-70
2023/09/03 06:17:22;;;;;;;2.83;2.08;;;;;;;-145.68;100.00;74181.44;10370531;28;20213;-69
2023/09/03 06:22:22;;;;;;;3.35;2.10;;;;;;;-145.68;100.00;74117.47;10370717;28;20204;-70
2023/09/03 06:27:23;;;;;;;3.75;2.10;;;;;;;-145.68;100.00;74057.50;10370638;28;20300;-70
2023/09/03 06:32:24;;;;;;;3.35;2.10;;;;;;;-145.68;100.00;73985.53;10370334;28;20213;-69
2023/09/03 06:37:24;;;;;;;4.20;3.80;;;;;;;-145.68;100.00;73931.56;10370365;28;20201;-69
2023/09/03 06:42:26;;;;;;;3.85;3.45;;;;;;;-145.68;100.00;73841.59;10370045;28;20185;-69
2023/09/03 06:47:27;;;;;;;8.90;6.00;;;;;;;-145.68;100.00;73795.63;10362023;28;20576;-69
2023/09/03 06:52:27;;;;;;;6.15;5.55;;;;;;;-145.68;100.00;73771.63;10362069;28;20241;-69
2023/09/03 06:57:28;;;;;;;8.07;6.68;;;;;;;-145.68;100.00;73759.66;10362143;28;20220;-68
2023/09/03 07:02:28;;;;;;;5.47;4.97;;;;;;;-145.68;100.00;73791.63;10369647;28;20189;-68
2023/09/03 07:07:28;;;;;;;6.18;5.65;;;;;;;-145.68;100.00;73809.63;10369023;28;20224;-68
2023/09/03 07:12:29;;;;;;;6.82;6.13;;;;;;;-145.68;100.00;73817.63;10366148;28;20217;-69
2023/09/03 07:17:29;;;;;;;7.00;5.95;;;;;;;-145.68;100.00;73805.63;10368945;28;20205;-68
2023/09/03 07:22:30;;;;;;;6.40;5.80;;;;;;;-145.68;100.00;73779.63;10368768;28;20181;-69
2023/09/03 07:27:31;;;;;;;8.80;5.90;;;;;;;-145.68;100.00;73745.66;10367763;28;20213;-68
2023/09/03 07:32:32;;;;;;;7.18;6.47;;;;;;;-145.68;100.00;73735.66;10368281;28;20209;-69
2023/09/03 07:37:33;;;;;;;11.60;8.57;;;;;;;-145.68;100.00;73795.63;10368585;28;20263;-69
2023/09/03 07:42:33;;;;;;;8.57;7.68;;;;;;;-145.68;100.00;73705.69;10368296;28;20259;-68
2023/09/03 07:47:34;;;;;;;10.40;7.97;;;;;;;-145.68;98.99;73657.69;10368083;28;20694;-68
2023/09/03 07:52:34;;;;;;;10.95;8.30;;;;;;;-145.68;95.66;73667.69;10367983;28;20258;-68
2023/09/03 07:57:34;;;;;;;9.90;8.52;;;;;;;-145.68;98.03;73727.66;10367679;28;20212;-68
2023/09/03 08:02:35;;;;;;;11.68;9.25;;;;;;;-145.68;100.00;73689.69;10367976;28;20201;-68
2023/09/03 08:07:35;;;;;;;7.82;7.03;;;;;;;-145.68;92.97;73661.69;10367732;28;20232;-68
2023/09/03 08:12:36;;;;;;;9.10;7.00;;;;;;;-145.68;90.37;73683.69;10410503;22;20240;-71
2023/09/03 08:17:43;;;;;;;8.55;7.30;;;;;;;-145.68;92.54;73697.69;10403654;28;20193;-70
2023/09/03 08:22:44;;;;;;;9.50;7.60;;;;;;;-145.68;92.63;73735.66;10405430;28;20581;-69
2023/09/03 08:27:45;;;;;;;8.30;6.57;;;;;;;-145.68;90.08;73667.69;10406257;28;20197;-69
2023/09/03 08:32:45;;;;;;;8.13;7.32;;;;;;;-145.68;88.14;73679.69;10406578;28;21635;-70
2023/09/03 08:37:45;;;;;;;9.50;6.07;;;;;;;-145.68;90.52;73689.69;10408644;28;20578;-69
2023/09/03 08:42:47;;;;;;;7.13;6.47;;;;;;;-145.68;88.23;73703.69;10414594;28;20267;-69
2023/09/03 08:47:47;;;;;;;8.45;5.97;;;;;;;-145.68;90.01;73781.63;10415922;28;20206;-70
2023/09/03 08:52:47;;;;;;;11.43;7.13;;;;;;;-145.68;91.54;73757.66;10415507;28;20216;-69
2023/09/03 08:57:48;;;;;;;9.90;6.03;;;;;;;-145.68;87.87;73657.69;10415599;28;20655;-69
2023/09/03 09:02:48;;;;;;;6.50;5.30;;;;;;;-145.68;74.66;73515.78;10415041;28;20209;-70
2023/09/03 09:07:49;;;;;;;6.80;5.47;;;;;;;-145.68;71.79;73571.75;10415056;28;20208;-70
2023/09/03 09:13:04;;;;;;;9.75;6.70;;;;;;;-145.68;76.86;73671.69;10396914;28;20251;-69
2023/09/03 09:18:09;;;;;;;9.70;5.95;;;;;;;-145.68;78.44;73641.72;10397264;28;20188;-70
2023/09/03 09:23:10;;;;;;;8.95;5.95;;;;;;;-145.68;74.21;73567.75;10414227;28;20222;-70
2023/09/03 09:28:11;;;;;;;7.72;5.63;;;;;;;-145.68;74.34;73651.72;10414234;28;20573;-69
2023/09/03 09:33:12;;;;;;;6.45;5.20;;;;;;;-145.68;71.51;73539.78;10413991;28;20274;-69
2023/09/03 09:38:12;;;;;;;6.60;5.38;;;;;;;-145.68;71.46;73579.75;10413800;28;20552;-69
2023/09/03 09:43:12;;;;;;;8.43;5.43;;;;;;;-145.68;71.52;73541.78;10413631;28;20215;-69
2023/09/03 09:48:13;;;;;;;7.22;5.18;;;;;;;-145.68;66.39;73467.81;10413390;28;20243;-68
2023/09/03 09:53:20;;;;;;;5.97;5.35;;;;;;;-145.68;65.10;73405.84;10412573;28;20205;-70
2023/09/03 09:58:21;;;;;;;7.25;5.40;;;;;;;-145.68;60.48;73305.91;10413310;28;20193;-69
2023/09/03 10:03:21;;;;;;;7.85;5.47;;;;;;;-145.68;62.92;73411.84;10394848;28;20209;-71
2023/09/03 10:08:21;;;;;;;7.38;4.70;;;;;;;-145.68;65.13;73489.81;10413066;28;20724;-73
2023/09/03 10:13:22;;;;;;;11.43;6.10;;;;;;;-145.68;65.52;73535.78;10394229;28;20388;-72
2023/09/03 10:18:23;;;;;;;7.45;5.50;;;;;;;-145.68;68.37;73561.75;10412591;28;20189;-72
2023/09/03 10:23:25;;;;;;;8.48;6.05;;;;;;;-145.68;65.43;73421.84;10394373;28;20208;-71
2023/09/03 10:28:26;;;;;;;6.50;5.55;;;;;;;-145.68;60.10;73295.94;10394296;28;20184;-73
2023/09/03 10:33:27;;;;;;;8.75;5.28;;;;;;;-145.68;56.50;73144.03;10411727;28;20220;-72
2023/09/03 10:38:31;;;;;;;10.57;5.20;;;;;;;-145.68;57.13;73253.94;10389748;28;20188;-72
2023/09/03 10:43:31;;;;;;;8.60;4.28;;;;;;;-145.68;61.88;73425.84;10404654;28;20233;-70
2023/09/03 10:48:34;;;;;;;7.15;5.25;;;;;;;-145.68;63.06;73375.88;10411128;28;20188;-70
2023/09/03 10:53:44;;;;;;;12.02;6.05;;;;;;;-145.68;59.81;73239.97;10410699;28;20220;-69
2023/09/03 10:58:59;;;;;;;6.50;4.88;;;;;;;-145.68;55.68;73176.00;10410815;28;20195;-69
2023/09/03 11:04:02;;;;;;;8.52;6.00;;;;;;;-145.68;55.83;73205.97;10403227;28;20200;-74
2023/09/03 11:09:03;;;;;;;4.18;3.67;;;;;;;-145.68;53.84;73138.03;10410395;28;20192;-73
2023/09/03 11:14:10;;;;;;;7.28;4.32;;;;;;;-145.68;53.21;73184.00;10409876;28;20236;-71
2023/09/03 11:19:10;;;;;;;4.35;3.85;;;;;;;-145.68;53.13;73196.00;10410327;28;20196;-72
2023/09/03 11:24:18;;;;;;;4.18;3.55;;;;;;;-145.68;52.50;73211.97;10409727;28;20595;-71
2023/09/03 11:29:24;;;;;;;5.95;3.67;;;;;;;-145.68;50.94;73144.03;10409883;28;20292;-72
2023/09/03 11:34:24;;;;;;;4.55;3.40;;;;;;;-145.68;50.60;73026.09;10410064;28;20215;-72
2023/09/03 11:39:24;;;;;;;4.85;3.00;;;;;;;-145.68;48.49;72936.19;10409218;28;20189;-70
2023/09/03 11:44:26;;;;;;;3.88;2.85;;;;;;;-145.68;48.67;72962.16;10409449;28;20772;-72
2023/09/03 11:49:26;;;;;;;4.45;2.65;;;;;;;-145.68;48.35;73008.13;10392131;28;20204;-72
2023/09/03 11:54:27;;;;;;;4.55;3.17;;;;;;;-145.68;49.28;73072.06;10408785;28;20208;-72
2023/09/03 11:59:27;;;;;;;3.67;2.47;;;;;;;-145.68;46.39;72990.13;10409419;28;20181;-72
2023/09/03 12:04:28;;;;;;;4.88;3.05;;;;;;;-145.68;48.47;73092.06;10401235;28;20204;-72
2023/09/03 12:09:28;;;;;;;3.10;2.60;;;;;;;-145.68;46.50;72940.16;10409113;28;20307;-72
2023/09/03 12:14:29;;;;;;;3.97;2.72;;;;;;;-145.68;47.93;73006.13;10409831;28;20347;-72
2023/09/03 12:19:42;;;;;;;5.82;2.97;;;;;;;-145.68;47.26;73094.06;10417237;28;20284;-73
2023/09/03 12:24:45;;;;;;;3.80;2.90;;;;;;;-145.68;50.20;73207.97;10400300;28;20227;-72
2023/09/03 12:29:45;;;;;;;4.63;2.95;;;;;;;-145.68;47.39;73098.06;10417207;28;20254;-73
2023/09/03 12:34:49;;;;;;;4.28;2.35;;;;;;;-145.68;48.19;73090.06;10416216;28;20790;-73
2023/09/03 12:39:49;;;;;;;4.97;2.70;;;;;;;-145.68;49.28;73160.00;10416421;28;20239;-73
2023/09/03 12:44:51;;;;;;;4.57;2.80;;;;;;;-145.68;52.34;73285.94;10417200;28;20643;-73
2023/09/03 12:49:51;;;;;;;2.95;2.63;;;;;;;-145.68;49.45;73201.97;10423526;28;20263;-73
2023/09/03 12:54:52;;;;;;;4.38;3.22;;;;;;;-145.68;50.23;73257.94;10406694;28;20251;-73
2023/09/03 12:59:52;;;;;;;5.57;3.08;;;;;;;-145.68;51.82;73371.88;10415286;28;20192;-73
2023/09/03 13:04:52;;;;;;;4.68;2.80;;;;;;;-145.68;49.96;73239.97;10394587;28;20716;-72
2023/09/03 13:09:53;;;;;;;3.17;2.47;;;;;;;-145.68;47.32;73032.09;10377937;28;20795;-74
2023/09/03 13:14:53;;;;;;;3.45;2.55;;;;;;;-145.68;45.53;73054.09;10377454;28;20579;-71
2023/09/03 13:19:53;;;;;;;4.07;2.50;;;;;;;-145.68;46.45;73046.09;10383528;28;20189;-73
2023/09/03 13:24:54;;;;;;;7.32;2.13;;;;;;;-145.68;43.61;72930.19;10376955;28;20188;-72
2023/09/03 13:29:54;;;;;;;3.35;2.15;;;;;;;-145.68;47.07;73170.00;10360881;28;20270;-71
2023/09/03 13:34:55;;;;;;;3.13;2.10;;;;;;;-145.68;48.13;73180.00;10392194;28;20216;-73
2023/09/03 13:39:55;;;;;;;4.20;2.53;;;;;;;-145.68;50.27;73371.88;10374041;28;20604;-73
2023/09/03 13:44:55;;;;;;;8.48;2.60;;;;;;;-145.68;51.89;73439.84;10411891;28;20235;-73
2023/09/03 13:49:56;;;;;;;3.03;2.30;;;;;;;-145.68;50.52;73393.84;10395772;28;20217;-72
2023/09/03 13:54:56;;;;;;;2.58;2.00;;;;;;;-145.68;49.66;73267.94;10412703;28;20655;-73
2023/09/03 13:59:57;;;;;;;3.60;1.98;;;;;;;-145.68;47.97;73213.97;10404534;28;20263;-73
2023/09/03 14:05:00;;;;;;;4.72;2.00;;;;;;;-145.68;49.56;73301.91;10378626;28;20184;-73
2023/09/03 14:10:01;;;;;;;3.63;1.95;;;;;;;-145.68;50.95;73363.88;10376157;28;20213;-72
2023/09/03 14:15:01;;;;;;;3.60;2.20;;;;;;;-145.68;51.90;73467.81;10382244;28;20241;-72
2023/09/03 14:20:03;;;;;;;5.55;2.22;;;;;;;-145.68;52.04;73511.78;10374117;28;20563;-72
2023/09/03 14:25:04;;;;;;;2.90;2.22;;;;;;;-145.68;51.51;73435.84;10378001;28;20247;-71
2023/09/03 14:30:05;;;;;;;3.03;2.13;;;;;;;-145.68;50.57;73419.84;10381439;28;20696;-71
2023/09/03 14:35:05;;;;;;;4.20;1.90;;;;;;;-145.68;47.18;73178.00;10373888;28;20189;-73
2023/09/03 14:40:06;;;;;;;3.30;1.95;;;;;;;-145.68;47.63;73245.97;10379184;28;20614;-72
2023/09/03 14:45:08;;;;;;;4.43;2.28;;;;;;;-145.68;49.28;73415.84;10393356;28;20192;-72
2023/09/03 14:50:09;;;;;;;4.38;2.40;;;;;;;-145.68;53.01;73557.75;10424702;23;21105;-69
2023/09/03 14:55:09;;;;;;;7.82;2.70;;;;;;;-145.68;49.28;73401.84;10403646;28;20196;-68
2023/09/03 15:00:10;;;;;;;5.95;2.10;;;;;;;-145.68;50.08;73473.81;10415464;28;20204;-68
2023/09/03 15:05:11;;;;;;;4.60;2.17;;;;;;;-145.68;50.29;73453.81;10444090;28;20184;-68
2023/09/03 15:10:12;;;;;;;2.42;2.10;;;;;;;-145.68;49.79;73503.78;10437544;28;20223;-67
2023/09/03 15:15:12;;;;;;;2.78;1.70;;;;;;;-145.68;48.06;73373.88;10449835;28;20200;-68
2023/09/03 15:20:14;;;;;;;3.63;1.58;;;;;;;-145.68;46.33;73357.88;10449459;28;20204;-68
2023/09/03 15:25:14;;;;;;;2.20;1.60;;;;;;;-145.68;47.77;73391.84;10449934;28;20199;-68
2023/09/03 15:30:16;;;;;;;3.58;1.60;;;;;;;-145.68;46.20;73271.94;10449220;28;20224;-67
2023/09/03 15:35:17;;;;;;;2.90;1.30;;;;;;;-145.68;42.88;73130.03;10449471;28;20203;-68
2023/09/03 15:40:17;;;;;;;4.30;1.30;;;;;;;-145.68;42.43;73136.03;10448725;28;20230;-68
2023/09/03 15:45:17;;;;;;;2.80;1.60;;;;;;;-145.68;44.19;73349.88;10469935;28;20266;-69
2023/09/03 15:50:18;;;;;;;4.10;1.80;;;;;;;-145.68;44.42;73373.88;10477384;28;20727;-67
2023/09/03 15:55:19;;;;;;;4.75;1.60;;;;;;;-145.68;43.71;73295.94;10490571;28;20696;-67
2023/09/03 16:00:20;;;;;;;1.15;1.00;;;;;;;-145.68;42.95;73211.97;10467551;28;20200;-68
2023/09/03 16:05:20;;;;;;;7.55;4.88;;;;;;;-145.68;44.36;73383.88;10447668;28;20192;-68
2023/09/03 16:10:21;;;;;;;2.20;1.52;;;;;;;-145.68;47.20;73585.75;10466851;28;20212;-68
2023/09/03 16:15:21;;;;;;;1.48;1.27;;;;;;;-145.68;47.99;73569.75;10488931;28;20554;-68
2023/09/03 16:20:22;;;;;;;2.22;1.60;;;;;;;-145.68;49.07;73643.72;10455555;28;20200;-67
2023/09/03 16:25:22;;;;;;;4.20;1.70;;;;;;;-145.68;49.83;73699.69;10489520;28;20709;-68
2023/09/03 16:30:22;;;;;;;3.15;1.95;;;;;;;-145.68;50.33;73751.66;10488982;28;20222;-67
2023/09/03 16:35:23;;;;;;;1.48;1.20;;;;;;;-145.68;51.16;73767.66;10489678;28;20179;-67
2023/09/03 16:40:23;;;;;;;25.52;15.73;;;;;;;-145.68;52.96;73825.63;10486152;28;20211;-68
2023/09/03 16:45:23;;;;;;;15.10;6.60;;;;;;;-145.68;53.11;73819.63;10489197;28;20187;-67
2023/09/03 16:50:24;;;;;;;9.10;6.65;;;;;;;-145.68;55.21;73835.59;10489006;28;20760;-67
2023/09/03 16:55:24;;;;;;;2.08;1.60;;;;;;;-145.68;55.04;73827.59;10488021;28;20207;-67
2023/09/03 17:00:26;;;;;;;4.97;1.73;;;;;;;-145.68;56.15;73855.59;10471924;28;20601;-67
2023/09/03 17:05:26;;;;;;;2.65;1.70;;;;;;;-145.68;56.44;73881.59;10495562;28;20218;-68
2023/09/03 17:10:26;;;;;;;4.15;1.88;;;;;;;-145.68;57.53;73937.56;10461168;28;20230;-67
2023/09/03 17:15:27;;;;;;;4.15;1.60;;;;;;;-145.68;58.28;73955.53;10456869;28;20677;-67
2023/09/03 17:20:27;;;;;;;1.92;1.55;;;;;;;-145.68;59.76;73995.53;10491417;28;20207;-67
2023/09/03 17:25:28;;;;;;;1.50;1.35;;;;;;;-145.68;61.21;74023.50;10495161;28;20217;-68
2023/09/03 17:30:29;;;;;;;3.13;1.70;;;;;;;-145.68;62.15;74055.50;10494765;28;20284;-68
2023/09/03 17:35:29;;;;;;;2.42;1.55;;;;;;;-145.68;64.40;74085.47;10494843;28;20229;-67
2023/09/03 17:40:29;;;;;;;2.63;1.67;;;;;;;-145.68;67.88;74135.47;10495612;28;20214;-67
2023/09/03 17:45:30;;;;;;;2.45;1.23;;;;;;;-145.68;68.88;74135.47;10493670;28;20954;-67
2023/09/03 17:50:30;;;;;;;6.15;1.75;;;;;;;-145.68;69.37;74179.44;10493661;28;20231;-68
2023/09/03 17:55:30;;;;;;;3.17;1.70;;;;;;;-145.68;71.74;74225.41;10494120;28;20184;-67
2023/09/03 18:00:31;;;;;;;3.53;2.72;;;;;;;-145.68;72.81;74245.41;10493549;28;20203;-68
2023/09/03 18:05:31;;;;;;;4.80;3.00;;;;;;;-145.68;77.07;74289.41;10488227;28;20547;-68
2023/09/03 18:10:34;;;;;;;10.13;6.50;;;;;;;-145.68;79.22;74347.38;10477574;28;20216;-67
2023/09/03 18:15:35;;;;;;;3.22;1.92;;;;;;;-145.68;84.94;74339.38;10473900;28;20248;-67
2023/09/03 18:20:35;;;;;;;4.18;2.15;;;;;;;-145.68;88.23;74377.38;10492667;28;20689;-68
2023/09/03 18:25:36;;;;;;;6.60;2.95;;;;;;;-145.68;97.88;74467.31;10492585;28;20747;-68
2023/09/03 18:30:36;;;;;;;6.07;3.10;;;;;;;-145.68;100.00;74463.31;10492791;28;20297;-68
2023/09/03 18:35:37;;;;;;;2.97;2.30;;;;;;;-145.68;100.00;74495.31;10492334;28;20183;-67
2023/09/03 18:40:37;;;;;;;7.13;2.25;;;;;;;-145.68;100.00;74531.31;10491948;28;20206;-66
2023/09/03 18:45:37;;;;;;;4.28;2.00;;;;;;;-145.68;100.00;74531.31;10491992;28;20244;-67
2023/09/03 18:50:38;;;;;;;6.43;2.80;;;;;;;-145.68;100.00;74549.28;10491145;28;20227;-66
2023/09/03 18:55:39;;;;;;;7.30;2.80;;;;;;;-145.68;100.00;74577.28;10479814;28;20192;-66
2023/09/03 19:00:39;;;;;;;8.43;2.70;;;;;;;-145.68;100.00;74575.28;10452000;28;20321;-66
2023/09/03 19:05:41;;;;;;;4.40;2.45;;;;;;;-145.68;100.00;74595.28;10452418;28;20252;-66
2023/09/03 19:10:41;;;;;;;4.10;3.00;;;;;;;-145.68;100.00;74615.28;10452432;28;20219;-67
2023/09/03 19:15:41;;;;;;;2.88;2.55;;;;;;;-145.68;100.00;74627.28;10469824;28;20206;-66
2023/09/03 19:20:42;;;;;;;4.80;2.70;;;;;;;-145.68;100.00;74631.28;10490677;28;20210;-66
2023/09/03 19:25:47;;;;;;;8.80;3.00;;;;;;;-145.68;100.00;74649.25;10490284;28;20218;-66
2023/09/03 19:30:49;;;;;;;4.60;2.83;;;;;;;-145.68;100.00;74665.25;10490687;28;20219;-66
2023/09/03 19:35:58;;;;;;;5.82;3.00;;;;;;;-145.68;100.00;74685.25;10489966;28;20674;-67
2023/09/03 19:40:59;;;;;;;4.97;2.83;;;;;;;-145.68;100.00;74695.25;10490178;28;20234;-67
2023/09/03 19:46:00;;;;;;;5.28;2.60;;;;;;;-145.68;100.00;74707.25;10490325;28;20190;-66
2023/09/03 19:51:00;;;;;;;4.60;2.83;;;;;;;-145.68;100.00;74717.25;10489543;28;20302;-67
2023/09/03 19:56:06;;;;;;;4.90;3.13;;;;;;;-145.68;100.00;74737.25;10490219;28;20207;-66
2023/09/03 20:01:06;;;;;;;6.43;3.22;;;;;;;-145.68;100.00;74747.25;10489376;28;20226;-66
2023/09/03 20:06:07;;;;;;;8.63;3.20;;;;;;;-145.68;100.00;74767.22;10489094;28;20198;-66
2023/09/03 20:11:09;;;;;;;6.38;3.55;;;;;;;-145.68;100.00;74791.22;10489799;28;20222;-66
2023/09/03 20:16:10;;;;;;;4.93;3.53;;;;;;;-145.68;100.00;74801.22;10479564;28;20635;-66
2023/09/03 20:21:12;;;;;;;7.63;3.28;;;;;;;-145.68;100.00;74805.22;10450816;28;20210;-66
2023/09/03 20:26:12;;;;;;;4.55;3.22;;;;;;;-145.68;100.00;74821.22;10450845;28;20287;-66
2023/09/03 20:31:14;;;;;;;5.50;3.03;;;;;;;-145.68;100.00;74819.22;10450594;28;20592;-66
2023/09/03 20:36:14;;;;;;;8.98;3.35;;;;;;;-145.68;100.00;74827.22;10470020;28;20673;-66
2023/09/03 20:41:14;;;;;;;3.55;3.15;;;;;;;-145.68;100.00;74833.22;10496583;28;20265;-66
2023/09/03 20:46:16;;;;;;;5.38;3.35;;;;;;;-145.68;100.00;74835.22;10496497;28;20215;-67
2023/09/03 20:51:16;;;;;;;3.58;3.28;;;;;;;-145.68;100.00;74857.22;10501659;23;20247;-70
2023/09/03 20:56:17;;;;;;;3.58;3.08;;;;;;;-145.68;100.00;74865.19;10408592;28;20750;-70
2023/09/03 21:01:18;;;;;;;5.05;3.30;;;;;;;-145.68;100.00;74863.22;10415219;28;20219;-70
2023/09/03 21:06:19;;;;;;;4.67;3.20;;;;;;;-145.68;100.00;74875.19;10414822;28;20189;-70
2023/09/03 21:11:19;;;;;;;3.28;3.03;;;;;;;-145.68;100.00;74875.19;10415210;28;20587;-71
2023/09/03 21:16:20;;;;;;;9.27;3.60;;;;;;;-145.68;100.00;74861.22;10414744;28;20267;-70
2023/09/03 21:21:21;;;;;;;7.32;3.20;;;;;;;-145.68;100.00;74883.19;10414878;28;20201;-70
2023/09/03 21:26:23;;;;;;;3.73;3.30;;;;;;;-145.68;100.00;74891.19;10414464;28;20200;-71
2023/09/03 21:31:23;;;;;;;5.33;3.20;;;;;;;-145.68;100.00;74885.19;10414042;28;20737;-70
2023/09/03 21:36:24;;;;;;;3.63;3.03;;;;;;;-145.68;100.00;74877.19;10414433;28;20200;-71
2023/09/03 21:41:24;;;;;;;8.33;3.20;;;;;;;-145.68;100.00;74887.19;10413682;28;20200;-71
2023/09/03 21:46:29;;;;;;;7.17;3.60;;;;;;;-145.68;100.00;74881.19;10413204;28;20243;-71
2023/09/03 21:51:29;;;;;;;4.03;2.97;;;;;;;-145.68;100.00;74879.19;10419433;28;20236;-71
2023/09/03 21:56:29;;;;;;;5.00;3.07;;;;;;;-145.68;100.00;74891.19;10450445;28;20184;-71
2023/09/03 22:01:30;;;;;;;5.17;3.53;;;;;;;-145.68;100.00;74899.19;10452529;28;20204;-71
2023/09/03 22:06:31;;;;;;;7.10;3.50;;;;;;;-145.68;100.00;74907.19;10452540;28;20195;-71
2023/09/03 22:11:31;;;;;;;8.27;3.20;;;;;;;-145.68;100.00;74915.19;10452630;28;20594;-71
2023/09/03 22:16:33;;;;;;;4.67;3.50;;;;;;;-145.68;100.00;74925.19;10452117;28;20598;-72
2023/09/03 22:21:33;;;;;;;6.07;3.03;;;;;;;-145.68;100.00;74941.19;10452153;28;20246;-72
2023/09/03 22:26:34;;;;;;;3.30;3.00;;;;;;;-145.68;100.00;74943.19;10451951;28;20956;-71
2023/09/03 22:31:34;;;;;;;3.67;3.13;;;;;;;-145.68;100.00;74953.19;10451462;28;20765;-72
2023/09/03 22:36:35;;;;;;;6.40;3.53;;;;;;;-145.68;100.00;74963.19;10451659;28;20192;-72